sensor_id;sensor_type;location;lat;lon;timestamp;P1;durP1;ratioP1;P2;durP2;ratioP2
3257;SDS011;1641;51.306;12.384;2023-05-23T00:02:13;55.38;;;36.88;;
3257;SDS011;1641;51.306;12.384;2023-05-23T00:04:40;11.05;;;4.93;;
3257;SDS011;1641;51.306;12.384;2023-05-23T00:07:07;6.38;;;4.80;;
3257;SDS011;1641;51.306;12.384;2023-05-23T00:09:32;10.25;;;4.80;;
3257;SDS011;1641;51.306;12.384;2023-05-23T00:11:59;8.25;;;5.35;;
3257;SDS011;1641;51.306;12.384;2023-05-23T00:14:24;13.27;;;7.13;;
3257;SDS011;1641;51.306;12.384;2023-05-23T00:16:56;19.45;;;12.90;;
3257;SDS011;1641;51.306;12.384;2023-05-23T00:19:24;28.65;;;19.35;;
3257;SDS011;1641;51.306;12.384;2023-05-23T00:21:49;19.15;;;13.73;;
3257;SDS011;1641;51.306;12.384;2023-05-23T00:24:21;45.67;;;29.08;;
3257;SDS011;1641;51.306;12.384;2023-05-23T00:29:37;21.20;;;13.85;;
3257;SDS011;1641;51.306;12.384;2023-05-23T00:32:02;64.68;;;41.42;;
3257;SDS011;1641;51.306;12.384;2023-05-23T00:34:29;11.55;;;8.43;;
3257;SDS011;1641;51.306;12.384;2023-05-23T00:36:54;15.00;;;7.40;;
3257;SDS011;1641;51.306;12.384;2023-05-23T00:39:22;8.15;;;6.13;;
3257;SDS011;1641;51.306;12.384;2023-05-23T00:41:48;10.90;;;8.77;;
3257;SDS011;1641;51.306;12.384;2023-05-23T00:44:15;12.07;;;7.65;;
3257;SDS011;1641;51.306;12.384;2023-05-23T00:46:42;6.45;;;5.85;;
3257;SDS011;1641;51.306;12.384;2023-05-23T00:49:15;12.90;;;6.90;;
3257;SDS011;1641;51.306;12.384;2023-05-23T00:51:44;41.03;;;25.33;;
3257;SDS011;1641;51.306;12.384;2023-05-23T00:54:10;23.25;;;15.95;;
3257;SDS011;1641;51.306;12.384;2023-05-23T00:56:35;26.00;;;16.00;;
3257;SDS011;1641;51.306;12.384;2023-05-23T00:59:05;16.15;;;7.85;;
3257;SDS011;1641;51.306;12.384;2023-05-23T01:01:31;11.20;;;7.05;;
3257;SDS011;1641;51.306;12.384;2023-05-23T01:04:00;19.42;;;11.77;;
3257;SDS011;1641;51.306;12.384;2023-05-23T01:06:30;13.23;;;8.07;;
3257;SDS011;1641;51.306;12.384;2023-05-23T01:09:00;43.97;;;27.98;;
3257;SDS011;1641;51.306;12.384;2023-05-23T01:11:28;50.85;;;33.50;;
3257;SDS011;1641;51.306;12.384;2023-05-23T01:14:06;47.60;;;30.55;;
3257;SDS011;1641;51.306;12.384;2023-05-23T01:20:06;9.23;;;6.40;;
3257;SDS011;1641;51.306;12.384;2023-05-23T01:25:46;21.73;;;13.70;;
3257;SDS011;1641;51.306;12.384;2023-05-23T01:31:16;22.05;;;14.45;;
3257;SDS011;1641;51.306;12.384;2023-05-23T01:33:51;8.63;;;7.35;;
3257;SDS011;1641;51.306;12.384;2023-05-23T01:36:19;30.67;;;20.25;;
3257;SDS011;1641;51.306;12.384;2023-05-23T01:38:44;9.20;;;8.20;;
3257;SDS011;1641;51.306;12.384;2023-05-23T01:41:10;11.52;;;7.35;;
3257;SDS011;1641;51.306;12.384;2023-05-23T01:43:35;7.57;;;6.72;;
3257;SDS011;1641;51.306;12.384;2023-05-23T01:46:03;7.30;;;6.60;;
3257;SDS011;1641;51.306;12.384;2023-05-23T01:48:32;14.95;;;11.10;;
3257;SDS011;1641;51.306;12.384;2023-05-23T01:50:58;10.93;;;7.22;;
3257;SDS011;1641;51.306;12.384;2023-05-23T01:56:13;10.88;;;7.95;;
3257;SDS011;1641;51.306;12.384;2023-05-23T01:58:38;10.85;;;9.25;;
3257;SDS011;1641;51.306;12.384;2023-05-23T02:01:05;11.70;;;9.48;;
3257;SDS011;1641;51.306;12.384;2023-05-23T02:03:30;12.02;;;8.65;;
3257;SDS011;1641;51.306;12.384;2023-05-23T02:05:56;14.15;;;10.18;;
3257;SDS011;1641;51.306;12.384;2023-05-23T02:08:33;14.70;;;12.15;;
3257;SDS011;1641;51.306;12.384;2023-05-23T02:10:58;11.45;;;8.98;;
3257;SDS011;1641;51.306;12.384;2023-05-23T02:13:24;12.55;;;8.32;;
3257;SDS011;1641;51.306;12.384;2023-05-23T02:15:49;13.77;;;10.02;;
3257;SDS011;1641;51.306;12.384;2023-05-23T02:18:15;15.70;;;12.88;;
3257;SDS011;1641;51.306;12.384;2023-05-23T02:20:45;19.08;;;13.00;;
3257;SDS011;1641;51.306;12.384;2023-05-23T02:23:22;13.63;;;9.50;;
3257;SDS011;1641;51.306;12.384;2023-05-23T02:25:48;10.90;;;9.80;;
3257;SDS011;1641;51.306;12.384;2023-05-23T02:28:25;14.50;;;10.00;;
3257;SDS011;1641;51.306;12.384;2023-05-23T02:30:56;21.65;;;15.40;;
3257;SDS011;1641;51.306;12.384;2023-05-23T02:33:25;14.85;;;10.98;;
3257;SDS011;1641;51.306;12.384;2023-05-23T02:35:50;13.55;;;12.25;;
3257;SDS011;1641;51.306;12.384;2023-05-23T02:38:16;12.85;;;10.75;;
3257;SDS011;1641;51.306;12.384;2023-05-23T02:40:43;22.33;;;17.02;;
3257;SDS011;1641;51.306;12.384;2023-05-23T02:43:24;19.42;;;15.82;;
3257;SDS011;1641;51.306;12.384;2023-05-23T02:45:49;14.98;;;13.45;;
3257;SDS011;1641;51.306;12.384;2023-05-23T02:48:15;16.63;;;13.27;;
3257;SDS011;1641;51.306;12.384;2023-05-23T02:50:56;15.35;;;13.13;;
3257;SDS011;1641;51.306;12.384;2023-05-23T02:53:21;15.40;;;12.75;;
3257;SDS011;1641;51.306;12.384;2023-05-23T02:55:46;13.60;;;12.20;;
3257;SDS011;1641;51.306;12.384;2023-05-23T02:58:12;13.20;;;11.90;;
3257;SDS011;1641;51.306;12.384;2023-05-23T03:00:37;19.48;;;13.65;;
3257;SDS011;1641;51.306;12.384;2023-05-23T03:05:47;13.68;;;11.77;;
3257;SDS011;1641;51.306;12.384;2023-05-23T03:08:15;14.10;;;12.63;;
3257;SDS011;1641;51.306;12.384;2023-05-23T03:10:40;17.90;;;14.85;;
3257;SDS011;1641;51.306;12.384;2023-05-23T03:13:06;19.02;;;14.63;;
3257;SDS011;1641;51.306;12.384;2023-05-23T03:15:31;19.50;;;15.13;;
3257;SDS011;1641;51.306;12.384;2023-05-23T03:17:56;16.00;;;13.68;;
3257;SDS011;1641;51.306;12.384;2023-05-23T03:20:33;16.10;;;12.93;;
3257;SDS011;1641;51.306;12.384;2023-05-23T03:22:59;14.15;;;12.40;;
3257;SDS011;1641;51.306;12.384;2023-05-23T03:25:24;19.25;;;13.88;;
3257;SDS011;1641;51.306;12.384;2023-05-23T03:27:50;17.20;;;13.60;;
3257;SDS011;1641;51.306;12.384;2023-05-23T03:30:16;14.40;;;12.95;;
3257;SDS011;1641;51.306;12.384;2023-05-23T03:32:41;15.88;;;14.13;;
3257;SDS011;1641;51.306;12.384;2023-05-23T03:35:07;16.95;;;13.90;;
3257;SDS011;1641;51.306;12.384;2023-05-23T03:37:32;15.35;;;13.45;;
3257;SDS011;1641;51.306;12.384;2023-05-23T03:39:58;14.73;;;12.98;;
3257;SDS011;1641;51.306;12.384;2023-05-23T03:42:23;15.13;;;13.38;;
3257;SDS011;1641;51.306;12.384;2023-05-23T03:44:48;17.38;;;14.20;;
3257;SDS011;1641;51.306;12.384;2023-05-23T03:47:14;14.95;;;13.55;;
3257;SDS011;1641;51.306;12.384;2023-05-23T03:49:39;14.93;;;13.27;;
3257;SDS011;1641;51.306;12.384;2023-05-23T03:52:04;14.30;;;12.80;;
3257;SDS011;1641;51.306;12.384;2023-05-23T03:54:30;18.65;;;14.20;;
3257;SDS011;1641;51.306;12.384;2023-05-23T03:56:55;16.50;;;12.93;;
3257;SDS011;1641;51.306;12.384;2023-05-23T03:59:20;14.35;;;12.93;;
3257;SDS011;1641;51.306;12.384;2023-05-23T04:01:46;14.55;;;12.88;;
3257;SDS011;1641;51.306;12.384;2023-05-23T04:04:11;18.50;;;12.18;;
3257;SDS011;1641;51.306;12.384;2023-05-23T04:06:36;14.20;;;12.07;;
3257;SDS011;1641;51.306;12.384;2023-05-23T04:09:02;13.98;;;11.75;;
3257;SDS011;1641;51.306;12.384;2023-05-23T04:11:27;18.88;;;12.85;;
3257;SDS011;1641;51.306;12.384;2023-05-23T04:13:52;17.00;;;11.40;;
3257;SDS011;1641;51.306;12.384;2023-05-23T04:16:18;12.52;;;10.57;;
3257;SDS011;1641;51.306;12.384;2023-05-23T04:18:43;15.13;;;11.80;;
3257;SDS011;1641;51.306;12.384;2023-05-23T04:21:11;15.73;;;11.30;;
3257;SDS011;1641;51.306;12.384;2023-05-23T04:23:36;13.85;;;11.38;;
3257;SDS011;1641;51.306;12.384;2023-05-23T04:26:02;13.30;;;11.88;;
3257;SDS011;1641;51.306;12.384;2023-05-23T04:28:29;13.32;;;11.88;;
3257;SDS011;1641;51.306;12.384;2023-05-23T04:30:55;12.60;;;11.30;;
3257;SDS011;1641;51.306;12.384;2023-05-23T04:33:20;13.52;;;12.13;;
3257;SDS011;1641;51.306;12.384;2023-05-23T04:35:46;13.00;;;10.93;;
3257;SDS011;1641;51.306;12.384;2023-05-23T04:38:11;15.63;;;12.90;;
3257;SDS011;1641;51.306;12.384;2023-05-23T04:40:37;12.82;;;11.48;;
3257;SDS011;1641;51.306;12.384;2023-05-23T04:43:02;14.80;;;12.55;;
3257;SDS011;1641;51.306;12.384;2023-05-23T04:45:28;15.25;;;11.55;;
3257;SDS011;1641;51.306;12.384;2023-05-23T04:47:53;19.58;;;13.23;;
3257;SDS011;1641;51.306;12.384;2023-05-23T04:50:18;15.13;;;12.55;;
3257;SDS011;1641;51.306;12.384;2023-05-23T04:52:46;12.40;;;11.10;;
3257;SDS011;1641;51.306;12.384;2023-05-23T04:55:11;16.33;;;12.15;;
3257;SDS011;1641;51.306;12.384;2023-05-23T04:57:36;13.75;;;11.10;;
3257;SDS011;1641;51.306;12.384;2023-05-23T05:00:02;14.90;;;11.60;;
3257;SDS011;1641;51.306;12.384;2023-05-23T05:02:34;13.90;;;11.38;;
3257;SDS011;1641;51.306;12.384;2023-05-23T05:05:00;17.55;;;11.68;;
3257;SDS011;1641;51.306;12.384;2023-05-23T05:07:26;13.35;;;12.02;;
3257;SDS011;1641;51.306;12.384;2023-05-23T05:09:53;13.02;;;11.57;;
3257;SDS011;1641;51.306;12.384;2023-05-23T05:12:18;13.13;;;11.73;;
3257;SDS011;1641;51.306;12.384;2023-05-23T05:14:43;12.80;;;11.45;;
3257;SDS011;1641;51.306;12.384;2023-05-23T05:17:09;15.07;;;12.13;;
3257;SDS011;1641;51.306;12.384;2023-05-23T05:19:34;13.07;;;10.82;;
3257;SDS011;1641;51.306;12.384;2023-05-23T05:22:00;13.10;;;10.98;;
3257;SDS011;1641;51.306;12.384;2023-05-23T05:24:25;18.77;;;12.38;;
3257;SDS011;1641;51.306;12.384;2023-05-23T05:26:51;15.15;;;11.85;;
3257;SDS011;1641;51.306;12.384;2023-05-23T05:29:17;15.65;;;12.65;;
3257;SDS011;1641;51.306;12.384;2023-05-23T05:31:43;16.45;;;11.65;;
3257;SDS011;1641;51.306;12.384;2023-05-23T05:34:09;15.77;;;12.98;;
3257;SDS011;1641;51.306;12.384;2023-05-23T05:36:35;18.75;;;12.23;;
3257;SDS011;1641;51.306;12.384;2023-05-23T05:39:00;13.45;;;11.48;;
3257;SDS011;1641;51.306;12.384;2023-05-23T05:41:25;15.18;;;11.75;;
3257;SDS011;1641;51.306;12.384;2023-05-23T05:43:51;15.88;;;13.23;;
3257;SDS011;1641;51.306;12.384;2023-05-23T05:46:17;23.60;;;16.23;;
3257;SDS011;1641;51.306;12.384;2023-05-23T05:48:42;19.13;;;13.75;;
3257;SDS011;1641;51.306;12.384;2023-05-23T05:51:07;16.52;;;13.73;;
3257;SDS011;1641;51.306;12.384;2023-05-23T05:53:32;17.50;;;15.13;;
3257;SDS011;1641;51.306;12.384;2023-05-23T05:55:58;19.23;;;13.52;;
3257;SDS011;1641;51.306;12.384;2023-05-23T05:58:24;16.38;;;14.38;;
3257;SDS011;1641;51.306;12.384;2023-05-23T06:00:49;18.90;;;13.38;;
3257;SDS011;1641;51.306;12.384;2023-05-23T06:03:14;25.23;;;20.48;;
3257;SDS011;1641;51.306;12.384;2023-05-23T06:05:40;21.35;;;15.60;;
3257;SDS011;1641;51.306;12.384;2023-05-23T06:08:05;22.30;;;17.02;;
3257;SDS011;1641;51.306;12.384;2023-05-23T06:10:31;20.52;;;17.05;;
3257;SDS011;1641;51.306;12.384;2023-05-23T06:12:57;18.77;;;16.60;;
3257;SDS011;1641;51.306;12.384;2023-05-23T06:15:22;22.50;;;17.70;;
3257;SDS011;1641;51.306;12.384;2023-05-23T06:17:47;23.42;;;17.13;;
3257;SDS011;1641;51.306;12.384;2023-05-23T06:20:13;20.65;;;17.77;;
3257;SDS011;1641;51.306;12.384;2023-05-23T06:22:38;21.42;;;17.25;;
3257;SDS011;1641;51.306;12.384;2023-05-23T06:25:03;24.90;;;18.20;;
3257;SDS011;1641;51.306;12.384;2023-05-23T06:27:30;23.58;;;18.52;;
3257;SDS011;1641;51.306;12.384;2023-05-23T06:29:55;25.17;;;18.05;;
3257;SDS011;1641;51.306;12.384;2023-05-23T06:32:21;21.53;;;16.50;;
3257;SDS011;1641;51.306;12.384;2023-05-23T06:34:46;19.15;;;16.48;;
3257;SDS011;1641;51.306;12.384;2023-05-23T06:37:11;24.35;;;18.77;;
3257;SDS011;1641;51.306;12.384;2023-05-23T06:39:36;24.45;;;18.20;;
3257;SDS011;1641;51.306;12.384;2023-05-23T06:42:02;23.63;;;18.20;;
3257;SDS011;1641;51.306;12.384;2023-05-23T06:44:28;27.90;;;19.77;;
3257;SDS011;1641;51.306;12.384;2023-05-23T06:46:53;29.23;;;18.90;;
3257;SDS011;1641;51.306;12.384;2023-05-23T06:49:21;30.77;;;19.70;;
3257;SDS011;1641;51.306;12.384;2023-05-23T06:51:47;29.10;;;20.30;;
3257;SDS011;1641;51.306;12.384;2023-05-23T06:54:12;28.25;;;19.77;;
3257;SDS011;1641;51.306;12.384;2023-05-23T06:56:37;30.63;;;21.00;;
3257;SDS011;1641;51.306;12.384;2023-05-23T06:59:03;26.35;;;16.60;;
3257;SDS011;1641;51.306;12.384;2023-05-23T07:01:31;24.88;;;18.13;;
3257;SDS011;1641;51.306;12.384;2023-05-23T07:03:57;32.42;;;21.63;;
3257;SDS011;1641;51.306;12.384;2023-05-23T07:06:22;31.20;;;19.58;;
3257;SDS011;1641;51.306;12.384;2023-05-23T07:08:48;36.63;;;20.67;;
3257;SDS011;1641;51.306;12.384;2023-05-23T07:11:13;27.70;;;20.58;;
3257;SDS011;1641;51.306;12.384;2023-05-23T07:13:38;30.73;;;20.17;;
3257;SDS011;1641;51.306;12.384;2023-05-23T07:16:04;37.58;;;20.10;;
3257;SDS011;1641;51.306;12.384;2023-05-23T07:18:32;25.85;;;18.48;;
3257;SDS011;1641;51.306;12.384;2023-05-23T07:20:57;21.67;;;16.38;;
3257;SDS011;1641;51.306;12.384;2023-05-23T07:23:31;22.08;;;14.93;;
3257;SDS011;1641;51.306;12.384;2023-05-23T07:26:01;28.92;;;15.60;;
3257;SDS011;1641;51.306;12.384;2023-05-23T07:28:27;19.80;;;14.70;;
3257;SDS011;1641;51.306;12.384;2023-05-23T07:30:52;23.95;;;13.80;;
3257;SDS011;1641;51.306;12.384;2023-05-23T07:33:17;19.30;;;12.60;;
3257;SDS011;1641;51.306;12.384;2023-05-23T07:35:43;20.27;;;12.35;;
3257;SDS011;1641;51.306;12.384;2023-05-23T07:38:17;12.40;;;10.52;;
3257;SDS011;1641;51.306;12.384;2023-05-23T07:40:42;17.25;;;10.02;;
3257;SDS011;1641;51.306;12.384;2023-05-23T07:43:14;12.75;;;10.23;;
3257;SDS011;1641;51.306;12.384;2023-05-23T07:45:39;15.55;;;9.95;;
3257;SDS011;1641;51.306;12.384;2023-05-23T07:48:04;15.00;;;11.15;;
3257;SDS011;1641;51.306;12.384;2023-05-23T07:50:29;16.65;;;9.15;;
3257;SDS011;1641;51.306;12.384;2023-05-23T07:52:55;16.83;;;9.50;;
3257;SDS011;1641;51.306;12.384;2023-05-23T07:55:20;11.10;;;8.82;;
3257;SDS011;1641;51.306;12.384;2023-05-23T07:57:46;15.82;;;9.35;;
3257;SDS011;1641;51.306;12.384;2023-05-23T08:00:11;12.93;;;8.68;;
3257;SDS011;1641;51.306;12.384;2023-05-23T08:02:37;13.30;;;9.40;;
3257;SDS011;1641;51.306;12.384;2023-05-23T08:05:02;11.77;;;9.00;;
3257;SDS011;1641;51.306;12.384;2023-05-23T08:07:27;11.48;;;9.13;;
3257;SDS011;1641;51.306;12.384;2023-05-23T08:09:53;13.48;;;10.30;;
3257;SDS011;1641;51.306;12.384;2023-05-23T08:12:21;13.02;;;10.70;;
3257;SDS011;1641;51.306;12.384;2023-05-23T08:14:49;13.50;;;10.73;;
3257;SDS011;1641;51.306;12.384;2023-05-23T08:17:18;13.68;;;10.55;;
3257;SDS011;1641;51.306;12.384;2023-05-23T08:19:43;17.80;;;12.15;;
3257;SDS011;1641;51.306;12.384;2023-05-23T08:22:08;17.33;;;12.43;;
3257;SDS011;1641;51.306;12.384;2023-05-23T08:24:33;15.02;;;12.05;;
3257;SDS011;1641;51.306;12.384;2023-05-23T08:26:59;18.15;;;12.52;;
3257;SDS011;1641;51.306;12.384;2023-05-23T08:29:27;18.05;;;12.70;;
3257;SDS011;1641;51.306;12.384;2023-05-23T08:31:58;17.77;;;13.38;;
3257;SDS011;1641;51.306;12.384;2023-05-23T08:34:26;15.10;;;11.57;;
3257;SDS011;1641;51.306;12.384;2023-05-23T08:36:52;18.33;;;12.43;;
3257;SDS011;1641;51.306;12.384;2023-05-23T08:39:20;18.08;;;13.25;;
3257;SDS011;1641;51.306;12.384;2023-05-23T08:41:45;20.35;;;12.73;;
3257;SDS011;1641;51.306;12.384;2023-05-23T08:44:14;14.38;;;12.82;;
3257;SDS011;1641;51.306;12.384;2023-05-23T08:46:45;18.20;;;13.68;;
3257;SDS011;1641;51.306;12.384;2023-05-23T08:49:13;16.73;;;12.70;;
3257;SDS011;1641;51.306;12.384;2023-05-23T08:51:42;24.88;;;13.52;;
3257;SDS011;1641;51.306;12.384;2023-05-23T08:54:08;16.20;;;13.25;;
3257;SDS011;1641;51.306;12.384;2023-05-23T08:56:37;14.07;;;12.23;;
3257;SDS011;1641;51.306;12.384;2023-05-23T08:59:12;13.48;;;11.82;;
3257;SDS011;1641;51.306;12.384;2023-05-23T09:01:42;13.32;;;11.85;;
3257;SDS011;1641;51.306;12.384;2023-05-23T09:04:23;14.13;;;12.05;;
3257;SDS011;1641;51.306;12.384;2023-05-23T09:06:48;21.25;;;15.45;;
3257;SDS011;1641;51.306;12.384;2023-05-23T09:09:14;16.08;;;12.05;;
3257;SDS011;1641;51.306;12.384;2023-05-23T09:11:40;15.80;;;11.98;;
3257;SDS011;1641;51.306;12.384;2023-05-23T09:14:09;14.00;;;11.98;;
3257;SDS011;1641;51.306;12.384;2023-05-23T09:16:35;16.98;;;10.90;;
3257;SDS011;1641;51.306;12.384;2023-05-23T09:19:08;12.60;;;10.48;;
3257;SDS011;1641;51.306;12.384;2023-05-23T09:21:41;16.45;;;9.93;;
3257;SDS011;1641;51.306;12.384;2023-05-23T09:24:10;13.98;;;12.02;;
3257;SDS011;1641;51.306;12.384;2023-05-23T09:26:36;13.07;;;10.63;;
3257;SDS011;1641;51.306;12.384;2023-05-23T09:29:05;20.65;;;12.65;;
3257;SDS011;1641;51.306;12.384;2023-05-23T09:31:31;14.25;;;10.63;;
3257;SDS011;1641;51.306;12.384;2023-05-23T09:33:57;12.23;;;10.43;;
3257;SDS011;1641;51.306;12.384;2023-05-23T09:36:26;11.75;;;9.73;;
3257;SDS011;1641;51.306;12.384;2023-05-23T09:38:57;12.38;;;9.80;;
3257;SDS011;1641;51.306;12.384;2023-05-23T09:41:28;11.02;;;9.20;;
3257;SDS011;1641;51.306;12.384;2023-05-23T09:44:07;12.82;;;9.98;;
3257;SDS011;1641;51.306;12.384;2023-05-23T09:46:36;12.73;;;9.60;;
3257;SDS011;1641;51.306;12.384;2023-05-23T09:49:14;12.98;;;9.57;;
3257;SDS011;1641;51.306;12.384;2023-05-23T09:51:55;11.68;;;9.43;;
3257;SDS011;1641;51.306;12.384;2023-05-23T09:54:27;9.77;;;7.63;;
3257;SDS011;1641;51.306;12.384;2023-05-23T09:56:59;10.05;;;7.07;;
3257;SDS011;1641;51.306;12.384;2023-05-23T09:59:30;7.43;;;6.35;;
3257;SDS011;1641;51.306;12.384;2023-05-23T10:01:56;11.35;;;5.82;;
3257;SDS011;1641;51.306;12.384;2023-05-23T10:04:33;9.95;;;5.88;;
3257;SDS011;1641;51.306;12.384;2023-05-23T10:07:17;7.75;;;6.95;;
3257;SDS011;1641;51.306;12.384;2023-05-23T10:09:51;14.00;;;7.68;;
3257;SDS011;1641;51.306;12.384;2023-05-23T10:12:40;7.82;;;6.10;;
3257;SDS011;1641;51.306;12.384;2023-05-23T10:15:09;10.10;;;7.10;;
3257;SDS011;1641;51.306;12.384;2023-05-23T10:17:51;8.05;;;5.47;;
3257;SDS011;1641;51.306;12.384;2023-05-23T10:20:24;7.30;;;6.15;;
3257;SDS011;1641;51.306;12.384;2023-05-23T10:22:50;8.43;;;5.85;;
3257;SDS011;1641;51.306;12.384;2023-05-23T10:25:16;7.97;;;5.90;;
3257;SDS011;1641;51.306;12.384;2023-05-23T10:27:41;5.95;;;5.32;;
3257;SDS011;1641;51.306;12.384;2023-05-23T10:30:07;8.25;;;6.35;;
3257;SDS011;1641;51.306;12.384;2023-05-23T10:32:33;12.68;;;8.13;;
3257;SDS011;1641;51.306;12.384;2023-05-23T10:40:54;8.75;;;6.75;;
3257;SDS011;1641;51.306;12.384;2023-05-23T10:49:18;7.05;;;5.55;;
3257;SDS011;1641;51.306;12.384;2023-05-23T10:52:03;7.07;;;5.93;;
3257;SDS011;1641;51.306;12.384;2023-05-23T10:54:44;9.30;;;5.55;;
3257;SDS011;1641;51.306;12.384;2023-05-23T10:57:14;7.68;;;6.05;;
3257;SDS011;1641;51.306;12.384;2023-05-23T10:59:40;7.15;;;6.18;;
3257;SDS011;1641;51.306;12.384;2023-05-23T11:02:11;10.90;;;6.10;;
3257;SDS011;1641;51.306;12.384;2023-05-23T11:04:39;8.00;;;5.50;;
3257;SDS011;1641;51.306;12.384;2023-05-23T11:07:05;6.82;;;6.03;;
3257;SDS011;1641;51.306;12.384;2023-05-23T11:12:42;8.45;;;5.85;;
3257;SDS011;1641;51.306;12.384;2023-05-23T11:17:49;12.65;;;5.25;;
3257;SDS011;1641;51.306;12.384;2023-05-23T11:20:20;6.13;;;4.40;;
3257;SDS011;1641;51.306;12.384;2023-05-23T11:25:44;6.07;;;4.10;;
3257;SDS011;1641;51.306;12.384;2023-05-23T11:28:13;5.63;;;3.88;;
3257;SDS011;1641;51.306;12.384;2023-05-23T11:30:39;3.40;;;3.10;;
3257;SDS011;1641;51.306;12.384;2023-05-23T11:33:08;2.63;;;2.35;;
3257;SDS011;1641;51.306;12.384;2023-05-23T11:35:41;3.33;;;2.45;;
3257;SDS011;1641;51.306;12.384;2023-05-23T11:38:08;3.40;;;2.20;;
3257;SDS011;1641;51.306;12.384;2023-05-23T11:40:35;4.80;;;1.58;;
3257;SDS011;1641;51.306;12.384;2023-05-23T11:43:03;1.67;;;1.52;;
3257;SDS011;1641;51.306;12.384;2023-05-23T11:45:33;1.88;;;1.73;;
3257;SDS011;1641;51.306;12.384;2023-05-23T11:48:12;4.93;;;1.92;;
3257;SDS011;1641;51.306;12.384;2023-05-23T11:50:50;3.10;;;1.33;;
3257;SDS011;1641;51.306;12.384;2023-05-23T11:53:18;4.30;;;1.88;;
3257;SDS011;1641;51.306;12.384;2023-05-23T11:58:14;5.00;;;1.58;;
3257;SDS011;1641;51.306;12.384;2023-05-23T12:00:43;2.90;;;1.70;;
3257;SDS011;1641;51.306;12.384;2023-05-23T12:03:09;6.30;;;2.30;;
3257;SDS011;1641;51.306;12.384;2023-05-23T12:05:35;6.90;;;2.13;;
3257;SDS011;1641;51.306;12.384;2023-05-23T12:08:01;3.17;;;1.85;;
3257;SDS011;1641;51.306;12.384;2023-05-23T12:10:26;2.70;;;1.80;;
3257;SDS011;1641;51.306;12.384;2023-05-23T12:12:52;4.13;;;3.45;;
3257;SDS011;1641;51.306;12.384;2023-05-23T12:15:17;10.27;;;5.38;;
3257;SDS011;1641;51.306;12.384;2023-05-23T12:17:43;4.63;;;3.30;;
3257;SDS011;1641;51.306;12.384;2023-05-23T12:20:12;3.95;;;3.40;;
3257;SDS011;1641;51.306;12.384;2023-05-23T12:22:37;3.63;;;3.17;;
3257;SDS011;1641;51.306;12.384;2023-05-23T12:25:03;3.53;;;3.15;;
3257;SDS011;1641;51.306;12.384;2023-05-23T12:27:33;4.53;;;3.60;;
3257;SDS011;1641;51.306;12.384;2023-05-23T12:30:10;8.40;;;6.10;;
3257;SDS011;1641;51.306;12.384;2023-05-23T12:32:38;7.18;;;3.97;;
3257;SDS011;1641;51.306;12.384;2023-05-23T12:35:04;5.25;;;3.97;;
3257;SDS011;1641;51.306;12.384;2023-05-23T12:37:30;7.60;;;5.45;;
3257;SDS011;1641;51.306;12.384;2023-05-23T12:39:56;6.47;;;5.05;;
3257;SDS011;1641;51.306;12.384;2023-05-23T12:42:21;5.90;;;4.95;;
3257;SDS011;1641;51.306;12.384;2023-05-23T12:44:50;6.47;;;5.82;;
3257;SDS011;1641;51.306;12.384;2023-05-23T12:47:17;6.63;;;5.80;;
3257;SDS011;1641;51.306;12.384;2023-05-23T12:49:43;9.77;;;6.25;;
3257;SDS011;1641;51.306;12.384;2023-05-23T12:52:10;7.90;;;6.07;;
3257;SDS011;1641;51.306;12.384;2023-05-23T12:54:39;8.25;;;5.00;;
3257;SDS011;1641;51.306;12.384;2023-05-23T12:57:04;8.52;;;5.00;;
3257;SDS011;1641;51.306;12.384;2023-05-23T12:59:29;5.82;;;5.25;;
3257;SDS011;1641;51.306;12.384;2023-05-23T13:01:54;7.25;;;4.95;;
3257;SDS011;1641;51.306;12.384;2023-05-23T13:04:20;5.97;;;3.80;;
3257;SDS011;1641;51.306;12.384;2023-05-23T13:06:45;4.05;;;3.20;;
3257;SDS011;1641;51.306;12.384;2023-05-23T13:09:10;5.75;;;4.15;;
3257;SDS011;1641;51.306;12.384;2023-05-23T13:11:35;5.70;;;4.10;;
3257;SDS011;1641;51.306;12.384;2023-05-23T13:14:01;9.23;;;5.78;;
3257;SDS011;1641;51.306;12.384;2023-05-23T13:16:27;6.85;;;5.60;;
3257;SDS011;1641;51.306;12.384;2023-05-23T13:18:52;6.60;;;5.80;;
3257;SDS011;1641;51.306;12.384;2023-05-23T13:21:18;6.65;;;5.40;;
3257;SDS011;1641;51.306;12.384;2023-05-23T13:23:43;5.35;;;4.78;;
3257;SDS011;1641;51.306;12.384;2023-05-23T13:26:08;5.90;;;5.30;;
3257;SDS011;1641;51.306;12.384;2023-05-23T13:28:34;5.18;;;4.68;;
3257;SDS011;1641;51.306;12.384;2023-05-23T13:30:59;5.95;;;4.50;;
3257;SDS011;1641;51.306;12.384;2023-05-23T13:33:26;8.23;;;5.72;;
3257;SDS011;1641;51.306;12.384;2023-05-23T13:35:51;4.55;;;4.03;;
3257;SDS011;1641;51.306;12.384;2023-05-23T13:38:18;4.43;;;4.03;;
3257;SDS011;1641;51.306;12.384;2023-05-23T13:40:44;4.88;;;3.85;;
3257;SDS011;1641;51.306;12.384;2023-05-23T13:43:11;4.57;;;4.10;;
3257;SDS011;1641;51.306;12.384;2023-05-23T13:45:36;5.75;;;3.85;;
3257;SDS011;1641;51.306;12.384;2023-05-23T13:48:01;4.13;;;3.70;;
3257;SDS011;1641;51.306;12.384;2023-05-23T13:50:26;4.28;;;3.72;;
3257;SDS011;1641;51.306;12.384;2023-05-23T13:52:52;4.82;;;4.32;;
3257;SDS011;1641;51.306;12.384;2023-05-23T13:55:17;5.15;;;4.57;;
3257;SDS011;1641;51.306;12.384;2023-05-23T13:57:43;7.93;;;4.88;;
3257;SDS011;1641;51.306;12.384;2023-05-23T14:00:08;8.43;;;4.57;;
3257;SDS011;1641;51.306;12.384;2023-05-23T14:02:34;5.93;;;5.18;;
3257;SDS011;1641;51.306;12.384;2023-05-23T14:04:59;6.43;;;5.15;;
3257;SDS011;1641;51.306;12.384;2023-05-23T14:07:24;5.25;;;4.75;;
3257;SDS011;1641;51.306;12.384;2023-05-23T14:09:50;6.13;;;5.00;;
3257;SDS011;1641;51.306;12.384;2023-05-23T14:12:18;6.80;;;4.10;;
3257;SDS011;1641;51.306;12.384;2023-05-23T14:14:43;6.97;;;4.43;;
3257;SDS011;1641;51.306;12.384;2023-05-23T14:17:14;5.60;;;4.88;;
3257;SDS011;1641;51.306;12.384;2023-05-23T14:19:40;7.78;;;4.25;;
3257;SDS011;1641;51.306;12.384;2023-05-23T14:22:06;5.47;;;4.57;;
3257;SDS011;1641;51.306;12.384;2023-05-23T14:24:37;4.88;;;4.45;;
3257;SDS011;1641;51.306;12.384;2023-05-23T14:29:28;6.15;;;5.22;;
3257;SDS011;1641;51.306;12.384;2023-05-23T14:31:56;7.53;;;5.65;;
3257;SDS011;1641;51.306;12.384;2023-05-23T14:34:23;6.50;;;5.53;;
3257;SDS011;1641;51.306;12.384;2023-05-23T14:36:49;6.80;;;5.03;;
3257;SDS011;1641;51.306;12.384;2023-05-23T14:39:17;9.13;;;6.53;;
3257;SDS011;1641;51.306;12.384;2023-05-23T14:41:43;6.60;;;5.68;;
3257;SDS011;1641;51.306;12.384;2023-05-23T14:44:08;7.13;;;5.43;;
3257;SDS011;1641;51.306;12.384;2023-05-23T14:46:33;7.53;;;5.70;;
3257;SDS011;1641;51.306;12.384;2023-05-23T14:48:59;7.95;;;6.03;;
3257;SDS011;1641;51.306;12.384;2023-05-23T14:51:24;6.22;;;5.15;;
3257;SDS011;1641;51.306;12.384;2023-05-23T14:53:49;5.07;;;4.57;;
3257;SDS011;1641;51.306;12.384;2023-05-23T14:56:16;5.28;;;4.55;;
3257;SDS011;1641;51.306;12.384;2023-05-23T14:58:41;8.10;;;4.20;;
3257;SDS011;1641;51.306;12.384;2023-05-23T15:01:09;5.50;;;3.80;;
3257;SDS011;1641;51.306;12.384;2023-05-23T15:03:38;4.63;;;3.30;;
3257;SDS011;1641;51.306;12.384;2023-05-23T15:06:06;5.03;;;3.42;;
3257;SDS011;1641;51.306;12.384;2023-05-23T15:08:31;3.78;;;2.92;;
3257;SDS011;1641;51.306;12.384;2023-05-23T15:10:57;3.10;;;2.85;;
3257;SDS011;1641;51.306;12.384;2023-05-23T15:13:28;5.68;;;3.55;;
3257;SDS011;1641;51.306;12.384;2023-05-23T15:15:54;4.03;;;3.60;;
3257;SDS011;1641;51.306;12.384;2023-05-23T15:18:22;4.97;;;3.55;;
3257;SDS011;1641;51.306;12.384;2023-05-23T15:20:47;5.20;;;3.70;;
3257;SDS011;1641;51.306;12.384;2023-05-23T15:23:12;4.82;;;4.32;;
3257;SDS011;1641;51.306;12.384;2023-05-23T15:25:43;7.35;;;4.50;;
3257;SDS011;1641;51.306;12.384;2023-05-23T15:28:09;4.75;;;4.35;;
3257;SDS011;1641;51.306;12.384;2023-05-23T15:30:43;4.10;;;3.70;;